createdAt,value
2023-03-01T06:19:30.347Z,315.00
2023-03-01T06:29:30.594Z,315.00
2023-03-01T06:39:30.474Z,315.00
2023-03-01T06:49:30.548Z,315.00
2023-03-01T06:59:30.722Z,315.00
2023-03-01T07:09:30.493Z,315.00
2023-03-01T07:19:30.517Z,315.00
2023-03-01T07:29:30.574Z,315.00
2023-03-01T07:39:30.570Z,315.00
2023-03-01T07:49:30.441Z,315.00
2023-03-01T07:59:30.690Z,315.00
2023-03-01T08:09:30.579Z,315.00
2023-03-01T08:19:30.588Z,334.30
2023-03-01T08:29:30.707Z,91.04
2023-03-01T08:39:31.781Z,90.28
2023-03-01T08:49:30.798Z,146.07
2023-03-01T08:59:30.842Z,155.03
2023-03-01T09:09:30.627Z,90.87
2023-03-01T09:19:30.520Z,78.31
2023-03-01T09:29:30.676Z,87.80
2023-03-01T09:39:30.529Z,86.29
2023-03-01T09:49:30.802Z,90.22
2023-03-01T09:59:30.704Z,90.69
2023-03-01T10:09:30.862Z,91.76
2023-03-01T10:19:30.748Z,83.12
2023-03-01T10:29:30.854Z,113.03
2023-03-01T10:39:30.673Z,90.00
2023-03-01T10:49:30.864Z,94.31
2023-03-01T10:59:31.086Z,90.00
2023-03-01T11:09:30.823Z,103.64
2023-03-01T11:19:30.791Z,65.36
2023-03-01T11:29:37.258Z,95.33
2023-03-01T11:39:31.973Z,90.22
2023-03-01T11:49:31.029Z,90.07
2023-03-01T11:59:31.051Z,90.22
2023-03-01T12:09:30.912Z,104.13
2023-03-01T12:19:30.920Z,76.76
2023-03-01T12:29:30.902Z,62.63
2023-03-01T12:39:30.881Z,111.64
2023-03-01T12:49:30.939Z,147.71
2023-03-01T12:59:30.895Z,64.15
2023-03-01T13:09:30.871Z,90.04
2023-03-01T13:19:30.886Z,90.48
2023-03-01T13:29:30.870Z,163.16
2023-03-01T13:39:30.899Z,90.16
2023-03-01T13:49:44.324Z,90.13
2023-03-01T13:59:30.941Z,88.67
2023-03-01T14:09:30.937Z,129.11
2023-03-01T14:19:34.106Z,91.11
2023-03-01T14:29:30.935Z,90.00
2023-03-01T14:39:31.026Z,71.00
2023-03-01T14:49:31.013Z,96.03
2023-03-01T14:59:30.888Z,90.24
2023-03-01T15:09:31.070Z,99.59
2023-03-01T15:19:30.938Z,107.66
2023-03-01T15:29:31.234Z,90.00
2023-03-01T15:39:30.965Z,92.89
2023-03-01T15:49:31.054Z,130.34
2023-03-01T15:59:31.041Z,92.82
2023-03-01T16:09:31.137Z,91.38
2023-03-01T16:19:31.052Z,90.00
2023-03-01T16:29:31.104Z,94.12
2023-03-01T16:39:31.098Z,96.80
2023-03-01T16:49:31.030Z,162.32
2023-03-01T16:59:31.097Z,180.00
2023-03-01T17:09:31.586Z,157.30
2023-03-01T17:19:31.238Z,180.00
2023-03-01T17:29:31.087Z,180.00
2023-03-01T17:39:32.534Z,172.58
2023-03-01T17:49:31.184Z,90.00
2023-03-01T17:59:31.214Z,121.61
2023-03-01T18:09:31.225Z,151.85
2023-03-01T18:19:31.112Z,90.00
2023-03-01T18:29:31.147Z,81.88
2023-03-01T18:39:31.181Z,100.14
2023-03-01T18:49:31.183Z,90.00
2023-03-01T18:59:31.212Z,90.00
2023-03-01T19:09:31.187Z,175.10
2023-03-01T19:19:31.261Z,180.00
